createdAt,value
2019-05-07T00:00:38.007Z,101803.49
2019-05-07T00:03:12.307Z,101802.52
2019-05-07T00:05:44.285Z,101796.44
2019-05-07T00:08:16.613Z,101802.63
2019-05-07T00:10:48.861Z,101802.66
2019-05-07T00:13:22.739Z,101805.52
2019-05-07T00:15:55.726Z,101806.37
2019-05-07T00:18:28.345Z,101807.11
2019-05-07T00:21:00.629Z,101806.76
2019-05-07T00:23:32.927Z,101813.26
2019-05-07T00:26:05.254Z,101816.42
2019-05-07T00:28:37.749Z,101812.59
2019-05-07T00:31:12.246Z,101811.62
2019-05-07T00:33:44.090Z,101803.94
2019-05-07T00:36:32.548Z,101795.64
2019-05-07T00:39:15.591Z,101789.87
2019-05-07T00:41:54.015Z,101795.36
2019-05-07T00:44:27.235Z,101799.65
2019-05-07T00:47:02.077Z,101795.48
2019-05-07T00:49:34.040Z,101800.13
2019-05-07T00:52:06.304Z,101799.97
2019-05-07T00:54:42.274Z,101803.27
2019-05-07T00:57:14.544Z,101807.07
2019-05-07T00:59:47.366Z,101806.13
2019-05-07T01:02:22.422Z,101803.91
2019-05-07T01:04:56.799Z,101795.24
2019-05-07T01:07:29.129Z,101803.28
2019-05-07T01:10:02.190Z,101795.38
2019-05-07T01:12:34.768Z,101794.50
2019-05-07T01:15:08.384Z,101791.45
2019-05-07T01:17:42.558Z,101801.47
2019-05-07T01:20:14.732Z,101801.61
2019-05-07T01:22:47.035Z,101813.79
2019-05-07T01:25:21.932Z,101810.18
2019-05-07T01:27:53.906Z,101809.98
2019-05-07T01:30:26.459Z,101807.08
2019-05-07T01:33:07.919Z,101809.68
2019-05-07T01:36:02.422Z,101811.09
2019-05-07T01:38:34.915Z,101810.03
2019-05-07T01:41:08.382Z,101810.33
2019-05-07T01:43:42.774Z,101808.00
2019-05-07T01:46:14.894Z,101806.58
2019-05-07T01:48:47.172Z,101803.92
2019-05-07T01:51:19.507Z,101809.05
2019-05-07T01:53:52.480Z,101806.94
2019-05-07T01:56:29.697Z,101811.19
2019-05-07T01:59:02.532Z,101818.36
2019-05-07T02:01:35.883Z,101812.30
2019-05-07T02:04:22.388Z,101815.59
2019-05-07T02:07:33.260Z,101821.14
2019-05-07T02:10:25.057Z,101818.13
2019-05-07T02:12:57.821Z,101824.77
2019-05-07T02:15:32.094Z,101825.45
2019-05-07T02:18:04.138Z,101819.43
2019-05-07T02:20:36.843Z,101825.67
2019-05-07T02:23:09.211Z,101827.01
2019-05-07T02:25:42.087Z,101826.59
2019-05-07T02:28:14.715Z,101829.92
2019-05-07T02:30:47.026Z,101830.80
2019-05-07T02:33:19.254Z,101831.89
2019-05-07T02:35:53.638Z,101825.23
2019-05-07T02:38:43.883Z,101826.94
2019-05-07T02:41:24.667Z,101828.27
2019-05-07T02:44:00.031Z,101827.07
2019-05-07T02:46:59.293Z,101829.02
2019-05-07T02:49:49.062Z,101827.94
2019-05-07T02:52:44.291Z,101830.73
2019-05-07T02:55:33.696Z,101827.30
2019-05-07T02:58:07.480Z,101831.25
2019-05-07T03:00:43.144Z,101826.77
2019-05-07T03:03:14.087Z,101827.91
2019-05-07T03:05:46.444Z,101826.28
2019-05-07T03:08:23.510Z,101823.89
2019-05-07T03:10:53.055Z,101825.99
2019-05-07T03:13:25.646Z,101823.20
2019-05-07T03:16:03.786Z,101831.38
2019-05-07T03:18:35.335Z,101826.92
2019-05-07T03:21:25.946Z,101832.40
2019-05-07T03:24:17.186Z,101825.77
2019-05-07T03:26:49.425Z,101824.49
2019-05-07T03:29:24.206Z,101830.75
2019-05-07T03:32:18.486Z,101834.76
2019-05-07T03:35:05.993Z,101836.76
2019-05-07T03:37:36.353Z,101830.64
2019-05-07T03:40:08.478Z,101834.98
2019-05-07T03:42:43.732Z,101834.05
2019-05-07T03:45:42.965Z,101836.54
2019-05-07T03:48:16.350Z,101841.52
2019-05-07T03:50:52.722Z,101837.41
2019-05-07T03:53:24.264Z,101841.41
2019-05-07T03:55:56.974Z,101842.12
2019-05-07T03:58:29.495Z,101841.25
2019-05-07T04:01:04.234Z,101840.59
2019-05-07T04:03:37.013Z,101841.94
2019-05-07T04:06:09.321Z,101838.67
2019-05-07T04:08:43.517Z,101838.70
2019-05-07T04:11:15.892Z,101838.25
2019-05-07T04:13:48.119Z,101838.00
2019-05-07T04:16:23.601Z,101834.21
2019-05-07T04:18:54.622Z,101843.91
2019-05-07T04:21:26.899Z,101837.00
2019-05-07T04:24:14.939Z,101838.85
2019-05-07T04:26:53.807Z,101833.25
2019-05-07T04:29:26.056Z,101832.28
2019-05-07T04:31:58.457Z,101836.33
2019-05-07T04:34:53.164Z,101828.69
2019-05-07T04:37:25.670Z,101827.27
2019-05-07T04:39:58.861Z,101833.03
2019-05-07T04:42:33.378Z,101832.06
2019-05-07T04:45:05.247Z,101831.73
2019-05-07T04:47:43.127Z,101831.50
2019-05-07T04:50:14.166Z,101829.09
2019-05-07T04:52:46.728Z,101827.26
2019-05-07T04:55:22.760Z,101827.70
2019-05-07T04:57:54.022Z,101830.61
2019-05-07T05:00:26.404Z,101823.61
2019-05-07T05:03:08.632Z,101823.37
2019-05-07T05:05:43.492Z,101821.03
2019-05-07T05:08:14.855Z,101826.48
2019-05-07T05:10:47.457Z,101835.48
2019-05-07T05:13:19.989Z,101837.44
2019-05-07T05:15:52.824Z,101834.94
2019-05-07T05:18:25.160Z,101835.80
2019-05-07T05:21:08.738Z,101844.03
2019-05-07T05:23:49.770Z,101840.56
2019-05-07T05:26:22.175Z,101841.45
2019-05-07T05:28:54.722Z,101845.77
2019-05-07T05:31:27.998Z,101844.57
2019-05-07T05:34:02.144Z,101842.45
2019-05-07T05:36:35.140Z,101850.16
2019-05-07T05:39:09.269Z,101847.42
2019-05-07T05:41:43.800Z,101849.81
2019-05-07T05:44:27.381Z,101847.30
2019-05-07T05:46:59.699Z,101845.69
2019-05-07T05:49:32.393Z,101846.89
2019-05-07T05:52:22.156Z,101842.09
2019-05-07T05:55:03.029Z,101851.35
2019-05-07T05:57:48.474Z,101849.20
2019-05-07T06:00:38.338Z,101846.56
2019-05-07T06:03:37.284Z,101852.61
2019-05-07T06:06:16.839Z,101859.86
2019-05-07T06:08:58.630Z,101853.72
2019-05-07T06:11:58.797Z,101851.63
2019-05-07T06:14:43.769Z,101852.30
2019-05-07T06:17:28.078Z,101851.97
2019-05-07T06:20:22.668Z,101842.57
2019-05-07T06:23:19.434Z,101852.67
2019-05-07T06:25:52.427Z,101846.16
2019-05-07T06:28:24.809Z,101848.91
2019-05-07T06:30:57.147Z,101847.80
2019-05-07T06:33:29.378Z,101850.69
2019-05-07T06:36:02.794Z,101844.91
2019-05-07T06:38:42.693Z,101853.33
2019-05-07T06:41:23.177Z,101850.61
2019-05-07T06:43:58.801Z,101847.30
2019-05-07T06:46:32.275Z,101852.64
2019-05-07T06:49:05.661Z,101850.92
2019-05-07T06:51:38.838Z,101858.98
2019-05-07T06:54:17.045Z,101860.42
2019-05-07T06:56:49.340Z,101863.17
2019-05-07T06:59:42.329Z,101859.08
2019-05-07T07:02:43.155Z,101856.34
2019-05-07T07:05:37.313Z,101853.00
2019-05-07T07:08:24.945Z,101854.63
2019-05-07T07:11:14.602Z,101855.42
2019-05-07T07:13:46.920Z,101851.86
2019-05-07T07:16:19.309Z,101851.38
2019-05-07T07:18:55.683Z,101847.86
2019-05-07T07:21:26.818Z,101851.54
2019-05-07T07:24:02.843Z,101847.24
2019-05-07T07:26:36.414Z,101850.42
2019-05-07T07:29:12.582Z,101846.44
2019-05-07T07:31:49.233Z,101844.58
2019-05-07T07:34:23.679Z,101842.41
2019-05-07T07:37:09.013Z,101844.50
2019-05-07T07:39:38.904Z,101840.41
2019-05-07T07:42:12.385Z,101838.64
2019-05-07T07:44:44.935Z,101846.84
2019-05-07T07:47:18.208Z,101842.33
2019-05-07T07:49:52.198Z,101836.77
2019-05-07T07:52:24.823Z,101833.41
2019-05-07T07:54:57.121Z,101832.88
2019-05-07T07:57:51.988Z,101827.59
2019-05-07T08:00:33.021Z,101824.28
2019-05-07T08:03:07.063Z,101824.39
2019-05-07T08:05:39.643Z,101822.69
2019-05-07T08:08:12.808Z,101829.41
2019-05-07T08:10:45.522Z,101837.59
2019-05-07T08:13:18.027Z,101840.20
2019-05-07T08:15:51.944Z,101838.98
2019-05-07T08:18:24.324Z,101837.88
2019-05-07T08:20:56.611Z,101835.97
2019-05-07T08:23:28.927Z,101839.39
2019-05-07T08:26:02.561Z,101840.78
2019-05-07T08:28:34.980Z,101837.63
2019-05-07T08:31:22.612Z,101831.39
2019-05-07T08:34:02.095Z,101825.73
2019-05-07T08:36:34.759Z,101827.83
2019-05-07T08:39:07.970Z,101836.97
2019-05-07T08:41:42.325Z,101833.94
2019-05-07T08:44:18.622Z,101824.55
2019-05-07T08:47:12.995Z,101826.78
2019-05-07T08:49:45.666Z,101822.28
2019-05-07T08:52:17.928Z,101825.62
2019-05-07T08:54:53.105Z,101824.37
2019-05-07T08:57:25.459Z,101814.02
2019-05-07T09:00:01.382Z,101810.66
2019-05-07T09:02:32.602Z,101813.13
2019-05-07T09:05:09.214Z,101807.20
2019-05-07T09:07:42.702Z,101807.05
2019-05-07T09:10:15.133Z,101818.73
2019-05-07T09:12:47.382Z,101817.09
2019-05-07T09:15:19.830Z,101805.81
2019-05-07T09:17:52.761Z,101797.72
2019-05-07T09:20:25.109Z,101799.37
2019-05-07T09:22:57.472Z,101811.77
2019-05-07T09:25:29.893Z,101810.63
2019-05-07T09:28:02.721Z,101796.72
2019-05-07T09:30:52.432Z,101799.17
2019-05-07T09:33:37.342Z,101800.71
2019-05-07T09:36:17.134Z,101799.20
2019-05-07T09:38:56.837Z,101801.12
2019-05-07T09:41:29.512Z,101794.91
2019-05-07T09:44:03.188Z,101789.13
2019-05-07T09:46:35.736Z,101786.88
2019-05-07T09:49:08.058Z,101804.70
2019-05-07T09:51:42.568Z,101790.28
2019-05-07T09:54:17.123Z,101772.47
2019-05-07T09:56:49.371Z,101771.47
2019-05-07T09:59:21.862Z,101769.55
2019-05-07T10:01:54.243Z,101768.80
2019-05-07T10:04:26.956Z,101763.61
2019-05-07T10:06:59.518Z,101776.30
2019-05-07T10:09:32.810Z,101793.97
2019-05-07T10:12:24.128Z,101800.44
2019-05-07T10:14:56.462Z,101811.85
2019-05-07T10:17:56.763Z,101810.30
2019-05-07T10:20:29.676Z,101812.89
2019-05-07T10:23:02.416Z,101810.41
2019-05-07T10:25:40.955Z,101809.55
2019-05-07T10:28:14.291Z,101813.63
2019-05-07T10:30:46.611Z,101812.47
2019-05-07T10:33:19.415Z,101816.56
2019-05-07T10:35:52.928Z,101822.03
2019-05-07T10:38:25.348Z,101818.47
2019-05-07T10:40:57.654Z,101819.63
2019-05-07T10:43:29.900Z,101817.34
2019-05-07T10:46:42.161Z,101808.83
2019-05-07T10:49:22.614Z,101797.62
2019-05-07T10:51:54.983Z,101802.73
2019-05-07T10:54:28.380Z,101791.06
2019-05-07T10:57:00.632Z,101786.81
2019-05-07T10:59:33.246Z,101770.69
2019-05-07T11:02:21.834Z,101766.77
2019-05-07T11:04:53.954Z,101771.91
2019-05-07T11:07:27.247Z,101774.33
2019-05-07T11:10:01.808Z,101757.94
2019-05-07T11:12:33.567Z,101757.02
2019-05-07T11:15:06.391Z,101764.88
2019-05-07T11:17:47.545Z,101758.87
2019-05-07T11:20:22.596Z,101750.69
2019-05-07T11:22:55.002Z,101748.86
2019-05-07T11:25:27.836Z,101741.58
2019-05-07T11:28:00.103Z,101735.59
2019-05-07T11:30:32.963Z,101733.21
2019-05-07T11:33:05.313Z,101735.67
2019-05-07T11:35:37.715Z,101726.55
2019-05-07T11:38:18.708Z,101729.08
2019-05-07T11:40:44.519Z,101733.66
2019-05-07T11:43:23.741Z,101736.02
2019-05-07T11:46:01.980Z,101723.73
2019-05-07T11:48:36.775Z,101713.48
2019-05-07T11:51:27.983Z,101713.91
2019-05-07T11:54:09.671Z,101717.53
2019-05-07T11:56:42.444Z,101717.50
2019-05-07T11:59:15.091Z,101717.27
2019-05-07T12:01:52.735Z,101713.50
2019-05-07T12:04:27.636Z,101713.23
2019-05-07T12:06:59.100Z,101709.03
2019-05-07T12:09:33.252Z,101706.92
2019-05-07T12:12:05.940Z,101705.59
2019-05-07T12:14:42.744Z,101703.97
2019-05-07T12:17:15.899Z,101705.16
2019-05-07T12:19:48.155Z,101704.35
2019-05-07T12:22:38.070Z,101704.05
2019-05-07T12:25:12.137Z,101709.17
2019-05-07T12:27:44.434Z,101705.16
2019-05-07T12:30:25.440Z,101704.41
2019-05-07T12:33:07.815Z,101712.13
2019-05-07T12:35:42.094Z,101712.72
2019-05-07T12:38:14.718Z,101724.35
2019-05-07T12:40:47.406Z,101724.88
2019-05-07T12:43:19.660Z,101722.51
2019-05-07T12:45:52.483Z,101720.45
2019-05-07T12:48:24.939Z,101720.53
2019-05-07T12:50:57.500Z,101713.09
2019-05-07T12:53:46.549Z,101710.11
2019-05-07T12:56:18.954Z,101693.39
2019-05-07T12:58:51.789Z,101690.39
2019-05-07T13:01:49.246Z,101690.35
2019-05-07T13:04:24.072Z,101686.14
2019-05-07T13:07:12.585Z,101681.64
2019-05-07T13:09:45.114Z,101680.92
2019-05-07T13:12:17.929Z,101679.22
2019-05-07T13:14:52.205Z,101676.45
2019-05-07T13:17:24.873Z,101667.45
2019-05-07T13:19:57.216Z,101664.45
2019-05-07T13:22:29.456Z,101658.78
2019-05-07T13:25:02.209Z,101658.20
2019-05-07T13:27:34.607Z,101661.59
2019-05-07T13:30:07.394Z,101665.98
2019-05-07T13:32:41.859Z,101665.36
2019-05-07T13:35:14.845Z,101660.37
2019-05-07T13:37:53.436Z,101656.56
2019-05-07T13:40:37.615Z,101657.11
2019-05-07T13:43:16.869Z,101653.45
2019-05-07T13:45:53.547Z,101647.78
2019-05-07T13:48:26.156Z,101646.06
2019-05-07T13:50:58.536Z,101651.04
2019-05-07T13:53:32.257Z,101644.89
2019-05-07T13:56:08.651Z,101644.63
2019-05-07T13:58:42.691Z,101644.70
2019-05-07T14:01:32.800Z,101639.53
2019-05-07T14:04:05.507Z,101643.73
2019-05-07T14:06:42.971Z,101637.28
2019-05-07T14:09:19.065Z,101627.22
2019-05-07T14:11:52.687Z,101627.14
2019-05-07T14:14:25.212Z,101632.01
2019-05-07T14:16:57.609Z,101629.19
2019-05-07T14:19:29.897Z,101627.93
2019-05-07T14:22:14.865Z,101627.22
2019-05-07T14:24:36.515Z,101624.02
2019-05-07T14:27:09.834Z,101627.95
2019-05-07T14:29:42.544Z,101620.40
2019-05-07T14:32:43.604Z,101622.04
2019-05-07T14:35:32.207Z,101621.86
2019-05-07T14:38:08.291Z,101619.14
2019-05-07T14:40:42.360Z,101619.67
2019-05-07T14:43:24.413Z,101614.55
2019-05-07T14:45:56.964Z,101615.11
2019-05-07T14:48:29.543Z,101613.08
2019-05-07T14:51:02.188Z,101606.70
2019-05-07T14:53:34.680Z,101606.80
2019-05-07T14:56:07.195Z,101606.91
2019-05-07T14:58:39.449Z,101597.63
2019-05-07T15:01:11.840Z,101598.23
2019-05-07T15:03:44.142Z,101599.33
2019-05-07T15:06:16.736Z,101604.68
2019-05-07T15:08:49.165Z,101597.15
2019-05-07T15:11:22.839Z,101596.75
2019-05-07T15:13:55.112Z,101594.88
2019-05-07T15:16:27.903Z,101599.31
2019-05-07T15:19:00.533Z,101595.91
2019-05-07T15:21:32.905Z,101596.48
2019-05-07T15:24:05.253Z,101594.19
2019-05-07T15:26:37.545Z,101594.19
2019-05-07T15:29:14.678Z,101594.04
2019-05-07T15:32:07.058Z,101581.38
2019-05-07T15:34:39.440Z,101583.18
2019-05-07T15:37:12.352Z,101582.02
2019-05-07T15:39:44.774Z,101581.28
2019-05-07T15:42:17.376Z,101583.25
2019-05-07T15:44:49.718Z,101580.50
2019-05-07T15:47:27.299Z,101578.94
2019-05-07T15:49:59.656Z,101574.29
2019-05-07T15:52:57.706Z,101571.08
2019-05-07T15:55:22.437Z,101566.20
2019-05-07T15:57:55.660Z,101560.50
2019-05-07T16:00:29.715Z,101554.69
2019-05-07T16:03:19.353Z,101555.00
2019-05-07T16:05:52.990Z,101551.87
2019-05-07T16:08:27.102Z,101553.14
2019-05-07T16:10:59.474Z,101550.19
2019-05-07T16:13:33.698Z,101548.37
2019-05-07T16:16:07.289Z,101544.95
2019-05-07T16:18:56.866Z,101541.80
2019-05-07T16:21:29.250Z,101537.66
2019-05-07T16:24:03.887Z,101535.72
2019-05-07T16:26:35.559Z,101535.98
2019-05-07T16:29:07.849Z,101532.09
2019-05-07T16:31:40.460Z,101531.88
2019-05-07T16:34:12.790Z,101534.11
2019-05-07T16:36:45.141Z,101535.67
2019-05-07T16:39:17.695Z,101528.45
2019-05-07T16:41:50.030Z,101530.06
2019-05-07T16:44:22.590Z,101524.70
2019-05-07T16:46:55.689Z,101522.91
2019-05-07T16:49:27.960Z,101518.50
2019-05-07T16:52:01.798Z,101522.72
2019-05-07T16:54:34.545Z,101523.92
2019-05-07T16:57:21.097Z,101529.92
2019-05-07T16:59:53.661Z,101520.72
2019-05-07T17:02:28.873Z,101517.94
2019-05-07T17:05:13.179Z,101515.62
2019-05-07T17:07:53.367Z,101510.72
2019-05-07T17:10:34.369Z,101503.20
2019-05-07T17:13:09.664Z,101502.02
2019-05-07T17:15:59.707Z,101505.78
2019-05-07T17:18:32.836Z,101499.80
2019-05-07T17:21:05.271Z,101494.27
2019-05-07T17:23:44.262Z,101487.78
2019-05-07T17:26:11.870Z,101487.39
2019-05-07T17:28:44.408Z,101487.81
2019-05-07T17:31:16.761Z,101497.58
2019-05-07T17:33:49.027Z,101496.88
2019-05-07T17:36:22.479Z,101495.30
2019-05-07T17:38:54.826Z,101496.24
2019-05-07T17:41:27.502Z,101496.22
2019-05-07T17:44:02.743Z,101489.81
2019-05-07T17:46:35.181Z,101488.06
2019-05-07T17:49:07.534Z,101490.50
2019-05-07T17:51:44.415Z,101491.89
2019-05-07T17:54:17.850Z,101488.89
2019-05-07T17:56:50.109Z,101486.19
2019-05-07T17:59:22.470Z,101486.37
2019-05-07T18:02:03.075Z,101482.80
2019-05-07T18:04:50.595Z,101482.94
2019-05-07T18:07:12.341Z,101480.69
2019-05-07T18:09:44.709Z,101485.77
2019-05-07T18:12:17.126Z,101482.41
2019-05-07T18:14:49.959Z,101483.28
2019-05-07T18:17:53.346Z,101476.88
2019-05-07T18:20:25.716Z,101485.13
2019-05-07T18:22:58.369Z,101478.34
2019-05-07T18:25:32.423Z,101474.25
2019-05-07T18:28:05.182Z,101462.42
2019-05-07T18:30:37.467Z,101454.47
2019-05-07T18:33:24.540Z,101460.64
2019-05-07T18:35:57.136Z,101465.27
2019-05-07T18:38:29.467Z,101464.74
2019-05-07T18:41:02.674Z,101461.20
2019-05-07T18:43:36.699Z,101461.93
2019-05-07T18:46:09.045Z,101463.32
2019-05-07T18:48:42.645Z,101468.05
2019-05-07T18:51:15.104Z,101465.89
2019-05-07T18:53:51.935Z,101462.66
2019-05-07T18:56:26.121Z,101463.79
2019-05-07T18:58:58.404Z,101466.22
2019-05-07T19:01:32.800Z,101463.06
2019-05-07T19:04:06.557Z,101467.48
2019-05-07T19:06:38.852Z,101465.86
2019-05-07T19:09:11.767Z,101472.26
2019-05-07T19:11:44.422Z,101469.26
2019-05-07T19:14:18.353Z,101471.39
2019-05-07T19:16:52.563Z,101470.66
2019-05-07T19:19:24.855Z,101466.72
2019-05-07T19:21:57.151Z,101470.70
2019-05-07T19:24:42.278Z,101473.14
2019-05-07T19:27:03.586Z,101472.38
2019-05-07T19:29:38.124Z,101471.43
2019-05-07T19:32:12.151Z,101467.94
2019-05-07T19:34:48.507Z,101467.68
2019-05-07T19:37:22.397Z,101466.47
2019-05-07T19:39:56.622Z,101465.03
2019-05-07T19:42:32.854Z,101465.55
2019-05-07T19:45:07.775Z,101462.91
2019-05-07T19:47:43.306Z,101463.98
2019-05-07T19:50:16.265Z,101456.05
2019-05-07T19:52:52.091Z,101452.91
2019-05-07T19:55:26.521Z,101451.93
2019-05-07T19:58:04.558Z,101456.36
2019-05-07T20:00:37.352Z,101455.84
2019-05-07T20:03:09.591Z,101456.48
2019-05-07T20:05:42.035Z,101454.36
2019-05-07T20:08:14.293Z,101451.30
2019-05-07T20:10:55.408Z,101447.52
2019-05-07T20:13:27.676Z,101435.83
2019-05-07T20:16:14.049Z,101440.62
2019-05-07T20:18:46.340Z,101432.98
2019-05-07T20:21:18.958Z,101430.58
2019-05-07T20:23:52.693Z,101430.15
2019-05-07T20:26:25.203Z,101431.64
2019-05-07T20:28:57.501Z,101431.55
2019-05-07T20:31:32.924Z,101427.82
2019-05-07T20:34:04.543Z,101429.14
2019-05-07T20:36:36.903Z,101426.00
2019-05-07T20:39:09.678Z,101418.06
2019-05-07T20:41:42.936Z,101419.01
2019-05-07T20:44:15.449Z,101417.23
2019-05-07T20:46:47.743Z,101416.73
2019-05-07T20:49:22.286Z,101416.28
2019-05-07T20:51:54.140Z,101415.16
2019-05-07T20:54:39.300Z,101409.92
2019-05-07T20:57:31.852Z,101408.77
2019-05-07T21:00:04.482Z,101409.63
2019-05-07T21:02:47.291Z,101403.91
2019-05-07T21:05:12.106Z,101401.75
2019-05-07T21:07:44.466Z,101400.34
2019-05-07T21:10:16.811Z,101405.04
2019-05-07T21:12:51.627Z,101395.62
2019-05-07T21:15:23.731Z,101397.41
2019-05-07T21:17:56.330Z,101392.21
2019-05-07T21:20:32.267Z,101393.84
2019-05-07T21:23:04.161Z,101395.25
2019-05-07T21:25:43.509Z,101394.44
2019-05-07T21:28:12.198Z,101394.14
2019-05-07T21:30:46.163Z,101392.38
2019-05-07T21:33:18.460Z,101389.16
2019-05-07T21:35:52.350Z,101379.06
2019-05-07T21:38:24.744Z,101383.69
2019-05-07T21:40:57.040Z,101378.15
2019-05-07T21:43:29.587Z,101378.17
2019-05-07T21:46:02.505Z,101378.59
2019-05-07T21:48:35.051Z,101371.62
2019-05-07T21:51:07.391Z,101373.69
2019-05-07T21:53:46.005Z,101367.51
2019-05-07T21:56:43.284Z,101370.11
2019-05-07T21:59:21.924Z,101371.40
2019-05-07T22:01:58.278Z,101367.23
2019-05-07T22:04:31.632Z,101367.24
2019-05-07T22:07:03.930Z,101364.18
2019-05-07T22:09:36.178Z,101369.06
2019-05-07T22:12:08.469Z,101373.94
2019-05-07T22:14:40.756Z,101355.68
2019-05-07T22:17:13.051Z,101358.44
2019-05-07T22:19:46.258Z,101367.91
2019-05-07T22:22:18.548Z,101368.09
2019-05-07T22:24:52.771Z,101360.78
2019-05-07T22:27:26.665Z,101355.73
2019-05-07T22:29:58.997Z,101357.48
2019-05-07T22:32:47.055Z,101355.70
2019-05-07T22:35:22.746Z,101346.93
2019-05-07T22:38:14.407Z,101344.48
2019-05-07T22:40:48.268Z,101338.13
2019-05-07T22:43:22.596Z,101335.02
2019-05-07T22:45:55.024Z,101333.13
2019-05-07T22:48:27.622Z,101329.02
2019-05-07T22:50:59.899Z,101321.03
2019-05-07T22:53:32.829Z,101320.88
2019-05-07T22:56:05.236Z,101316.81
2019-05-07T22:58:42.216Z,101307.55
2019-05-07T23:01:14.962Z,101302.29
2019-05-07T23:03:47.777Z,101301.34
2019-05-07T23:06:20.010Z,101299.09
2019-05-07T23:08:53.107Z,101293.41
2019-05-07T23:11:25.378Z,101296.81
2019-05-07T23:14:02.680Z,101289.80
2019-05-07T23:16:35.055Z,101287.84
2019-05-07T23:19:07.564Z,101292.20
2019-05-07T23:21:39.867Z,101289.19
2019-05-07T23:24:12.103Z,101284.77
2019-05-07T23:26:50.007Z,101285.11
2019-05-07T23:29:18.345Z,101282.01
2019-05-07T23:31:52.927Z,101284.99
2019-05-07T23:34:24.872Z,101279.26
2019-05-07T23:36:57.233Z,101279.62
2019-05-07T23:39:31.297Z,101282.08
2019-05-07T23:42:12.581Z,101272.64
2019-05-07T23:44:44.797Z,101277.50
2019-05-07T23:47:17.114Z,101274.78
2019-05-07T23:49:49.407Z,101269.73
2019-05-07T23:52:22.519Z,101265.02
2019-05-07T23:55:02.790Z,101264.39
2019-05-07T23:57:35.730Z,101260.64
